< < Back
Terminal Aerodrome Forecast


Current Version              Previous Versions:   1  2  3  4  5  6  7  8  9  

Terminal Aerodrome Forecast

572
FTUS42 KGSP 261500 AAA
TAFHKY
TAF AMD
KHKY 261515Z 2615/2712 36006KT P6SM SCT035
      TEMPO 2615/2619 00000KT BKN035
     FM261900 05004KT P6SM FEW170
     FM270600 35003KT P6SM SKC=

Latest METAR

430
SAUS70 KWBC 261300 RRW
MTRHKY
METAR KHKY 271253Z 29004KT 10SM CLR 18/16 A3015 RMK AO2 SLP190
T01830161


USA.gov is the U.S. government's official web portal to all federal, state and local government web resources and services.